createdAt,value
2023-06-22T00:00:28.455Z,7.05
2023-06-22T00:02:56.600Z,6.90
2023-06-22T00:05:24.408Z,7.27
2023-06-22T00:07:52.091Z,6.70
2023-06-22T00:10:19.846Z,7.53
2023-06-22T00:12:47.529Z,7.50
2023-06-22T00:15:16.858Z,7.53
2023-06-22T00:17:44.597Z,8.05
2023-06-22T00:20:13.342Z,8.60
2023-06-22T00:22:41.211Z,8.00
2023-06-22T00:25:09.942Z,8.63
2023-06-22T00:27:38.136Z,8.30
2023-06-22T00:30:06.770Z,8.02
2023-06-22T00:32:35.850Z,8.88
2023-06-22T00:35:03.626Z,8.63
2023-06-22T00:37:31.339Z,8.87
2023-06-22T00:39:59.079Z,11.07
2023-06-22T00:42:27.269Z,9.15
2023-06-22T00:44:55.236Z,9.65
2023-06-22T00:47:23.771Z,9.68
2023-06-22T00:49:53.289Z,10.10
2023-06-22T00:52:22.845Z,11.00
2023-06-22T00:54:51.440Z,10.32
2023-06-22T00:57:19.119Z,9.93
2023-06-22T00:59:47.151Z,10.40
2023-06-22T01:02:14.990Z,11.10
2023-06-22T01:04:42.897Z,11.18
2023-06-22T01:07:19.045Z,12.10
2023-06-22T01:09:51.800Z,11.88
2023-06-22T01:12:20.777Z,11.40
2023-06-22T01:14:53.280Z,11.30
2023-06-22T01:17:22.321Z,13.02
2023-06-22T01:19:53.746Z,12.40
2023-06-22T01:22:24.714Z,12.05
2023-06-22T01:24:59.732Z,12.20
2023-06-22T01:27:35.827Z,13.18
2023-06-22T01:30:06.535Z,13.43
2023-06-22T01:32:37.017Z,13.45
2023-06-22T01:35:06.974Z,13.32
2023-06-22T01:37:36.461Z,13.82
2023-06-22T01:40:06.256Z,13.75
2023-06-22T01:42:34.435Z,14.75
2023-06-22T01:45:02.460Z,14.85
2023-06-22T01:47:32.102Z,15.85
2023-06-22T01:50:00.302Z,15.90
2023-06-22T01:52:28.649Z,16.48
2023-06-22T01:54:58.846Z,15.43
2023-06-22T01:57:26.757Z,16.92
2023-06-22T02:00:00.075Z,16.38
2023-06-22T02:02:32.887Z,17.80
2023-06-22T02:05:03.455Z,17.92
2023-06-22T02:07:35.297Z,18.27
2023-06-22T02:10:04.978Z,18.33
2023-06-22T02:12:33.681Z,18.40
2023-06-22T02:15:02.607Z,19.27
2023-06-22T02:17:34.615Z,19.33
2023-06-22T02:20:09.583Z,20.42
2023-06-22T02:22:37.402Z,19.13
2023-06-22T02:25:05.791Z,19.58
2023-06-22T02:27:33.622Z,19.40
2023-06-22T02:30:01.545Z,19.63
2023-06-22T02:32:29.448Z,20.05
2023-06-22T02:34:58.736Z,20.23
2023-06-22T02:37:30.602Z,20.67
2023-06-22T02:39:58.534Z,21.05
2023-06-22T02:42:26.236Z,22.15
2023-06-22T02:44:54.045Z,22.15
2023-06-22T02:47:21.794Z,22.27
2023-06-22T02:49:49.594Z,22.67
2023-06-22T02:52:18.925Z,22.95
2023-06-22T02:54:47.208Z,21.85
2023-06-22T02:57:15.594Z,22.08
2023-06-22T02:59:43.900Z,20.93
2023-06-22T03:02:12.376Z,20.98
2023-06-22T03:04:40.224Z,21.23
2023-06-22T03:07:08.104Z,22.55
2023-06-22T03:09:37.326Z,23.45
2023-06-22T03:12:05.702Z,23.40
2023-06-22T03:14:33.518Z,24.23
2023-06-22T03:17:04.498Z,24.08
2023-06-22T03:19:32.576Z,24.52
2023-06-22T03:22:01.942Z,24.33
2023-06-22T03:24:30.750Z,24.10
2023-06-22T03:26:59.980Z,25.25
2023-06-22T03:29:31.197Z,24.05
2023-06-22T03:31:59.406Z,25.30
2023-06-22T03:34:27.268Z,25.60
2023-06-22T03:36:55.259Z,26.08
2023-06-22T03:39:23.092Z,25.08
2023-06-22T03:41:50.850Z,24.95
2023-06-22T03:44:20.068Z,25.73
2023-06-22T03:46:47.933Z,26.00
2023-06-22T03:49:15.774Z,25.90
2023-06-22T03:51:43.623Z,25.07
2023-06-22T03:54:11.496Z,25.80
2023-06-22T03:56:39.559Z,27.13
2023-06-22T03:59:07.326Z,27.33
2023-06-22T04:01:37.750Z,25.27
2023-06-22T04:04:06.040Z,26.38
2023-06-22T04:06:34.969Z,26.42
2023-06-22T04:09:02.779Z,26.90
2023-06-22T04:11:30.511Z,28.23
2023-06-22T04:13:58.299Z,26.77
2023-06-22T04:16:26.063Z,27.90
2023-06-22T04:18:55.307Z,27.38
2023-06-22T04:21:23.096Z,28.05
2023-06-22T04:23:50.853Z,27.58
2023-06-22T04:26:21.966Z,27.55
2023-06-22T04:28:52.604Z,26.83
2023-06-22T04:31:20.793Z,26.58
2023-06-22T04:33:48.663Z,27.42
2023-06-22T04:36:17.957Z,27.33
2023-06-22T04:38:45.902Z,26.67
2023-06-22T04:41:15.371Z,28.35
2023-06-22T04:43:43.201Z,28.02
2023-06-22T04:46:10.996Z,28.40
2023-06-22T04:48:38.673Z,26.42
2023-06-22T04:51:06.465Z,26.50
2023-06-22T04:53:35.706Z,25.98
2023-06-22T04:56:05.406Z,27.10
2023-06-22T04:58:33.636Z,26.73
2023-06-22T05:01:01.457Z,27.25
2023-06-22T05:03:29.453Z,24.70
2023-06-22T05:05:57.429Z,26.30
2023-06-22T05:08:27.842Z,25.05
2023-06-22T05:11:04.735Z,25.52
2023-06-22T05:13:33.348Z,25.33
2023-06-22T05:16:03.633Z,25.05
2023-06-22T05:18:32.018Z,25.75
2023-06-22T05:21:00.512Z,23.70
2023-06-22T05:23:28.567Z,23.83
2023-06-22T05:25:59.129Z,21.30
2023-06-22T05:28:27.148Z,24.02
2023-06-22T05:30:55.448Z,23.03
2023-06-22T05:33:23.294Z,25.00
2023-06-22T05:35:51.078Z,22.75
2023-06-22T05:38:18.841Z,20.40
2023-06-22T05:40:46.663Z,21.98
2023-06-22T05:43:15.941Z,20.92
2023-06-22T05:45:43.897Z,21.13
2023-06-22T05:48:11.701Z,19.67
2023-06-22T05:50:39.780Z,18.77
2023-06-22T05:53:08.853Z,18.02
2023-06-22T05:55:36.762Z,18.25
2023-06-22T05:58:05.563Z,16.20
2023-06-22T06:00:34.971Z,17.20
2023-06-22T06:03:04.540Z,18.58
2023-06-22T06:05:32.585Z,17.07
2023-06-22T06:08:01.034Z,16.92
2023-06-22T06:10:31.048Z,17.25
2023-06-22T06:12:59.083Z,15.25
2023-06-22T06:15:27.034Z,15.77
2023-06-22T06:17:56.544Z,13.65
2023-06-22T06:20:25.657Z,12.70
2023-06-22T06:22:53.422Z,12.73
2023-06-22T06:25:22.928Z,11.80
2023-06-22T06:27:52.351Z,10.77
2023-06-22T06:30:21.067Z,11.60
2023-06-22T06:32:49.277Z,12.80
2023-06-22T06:35:18.579Z,13.65
2023-06-22T06:37:49.689Z,13.60
2023-06-22T06:40:18.448Z,11.40
2023-06-22T06:42:47.304Z,12.63
2023-06-22T06:45:17.760Z,10.65
2023-06-22T06:47:45.752Z,10.00
2023-06-22T06:50:14.251Z,11.07
2023-06-22T06:52:43.608Z,11.68
2023-06-22T06:55:13.310Z,10.77
2023-06-22T06:57:41.660Z,9.85
2023-06-22T07:00:13.320Z,9.53
2023-06-22T07:02:42.334Z,9.18
2023-06-22T07:05:10.679Z,8.02
2023-06-22T07:07:38.943Z,10.17
2023-06-22T07:10:09.165Z,8.70
2023-06-22T07:12:37.209Z,8.38
2023-06-22T07:15:06.264Z,9.00
2023-06-22T07:17:34.309Z,7.28
2023-06-22T07:20:02.420Z,8.10
2023-06-22T07:22:30.448Z,6.78
2023-06-22T07:24:58.220Z,9.63
2023-06-22T07:27:28.130Z,8.85
2023-06-22T07:29:56.442Z,7.22
2023-06-22T07:32:24.223Z,9.07
2023-06-22T07:34:52.259Z,8.65
2023-06-22T07:37:20.033Z,7.20
2023-06-22T07:39:47.897Z,7.75
2023-06-22T07:42:19.764Z,8.10
2023-06-22T07:44:49.010Z,8.38
2023-06-22T07:47:18.985Z,8.18
2023-06-22T07:49:46.831Z,8.20
2023-06-22T07:52:14.792Z,8.65
2023-06-22T07:54:42.557Z,8.00
2023-06-22T07:57:10.365Z,8.63
2023-06-22T07:59:39.345Z,7.53
2023-06-22T08:02:09.873Z,8.05
2023-06-22T08:07:01.443Z,6.72
2023-06-22T08:09:30.300Z,6.72
2023-06-22T08:11:58.035Z,8.27
2023-06-22T08:14:25.889Z,6.78
2023-06-22T08:16:53.642Z,6.80
2023-06-22T08:19:21.353Z,7.25
2023-06-22T08:21:49.261Z,6.78
2023-06-22T08:24:18.469Z,7.00
2023-06-22T08:26:46.193Z,6.70
2023-06-22T08:29:13.966Z,6.85
2023-06-22T08:31:41.750Z,7.50
2023-06-22T08:34:09.517Z,7.47
2023-06-22T08:36:42.428Z,6.60
2023-06-22T08:39:10.333Z,7.57
2023-06-22T11:17:32.651Z,6.35
2023-06-22T11:20:01.350Z,6.28
2023-06-22T11:22:29.368Z,6.83
2023-06-22T11:25:57.814Z,7.78
2023-06-22T11:28:25.704Z,6.55
2023-06-22T11:30:54.329Z,10.20
2023-06-22T11:33:22.127Z,5.68
2023-06-22T11:35:49.953Z,6.65
2023-06-22T11:38:49.914Z,5.53
2023-06-22T11:41:17.749Z,6.70
2023-06-22T11:43:46.659Z,5.30
2023-06-22T11:46:14.517Z,5.90
2023-06-22T11:49:19.919Z,5.88
2023-06-22T11:51:47.690Z,6.32
2023-06-22T11:54:15.609Z,6.83
2023-06-22T11:56:43.407Z,5.03
2023-06-22T11:59:11.141Z,6.75
2023-06-22T12:01:38.994Z,5.97
2023-06-22T12:04:07.033Z,6.57
2023-06-22T12:06:39.299Z,7.32
2023-06-22T12:09:07.099Z,7.07
2023-06-22T12:11:34.949Z,7.18
2023-06-22T12:14:03.579Z,6.35
2023-06-22T12:16:31.458Z,6.20
2023-06-22T12:18:59.267Z,7.03
2023-06-22T12:21:27.284Z,5.97
2023-06-22T12:23:56.473Z,6.70
2023-06-22T12:26:24.276Z,7.28
2023-06-22T12:28:51.993Z,6.90
2023-06-22T12:31:19.798Z,6.55
2023-06-22T12:34:31.017Z,6.88
2023-06-22T12:36:58.859Z,6.97
2023-06-22T12:39:26.775Z,6.50
2023-06-22T12:41:54.605Z,6.25
2023-06-22T12:44:22.380Z,6.50
2023-06-22T12:46:50.157Z,6.65
2023-06-22T12:49:18.158Z,7.07
2023-06-22T12:51:47.491Z,7.15
2023-06-22T12:54:15.218Z,6.93
2023-06-22T12:56:44.898Z,7.50
2023-06-22T12:59:12.727Z,7.18
2023-06-22T13:02:25.326Z,7.93
2023-06-22T13:04:53.201Z,7.75
2023-06-22T13:07:23.841Z,11.85
2023-06-22T13:09:53.519Z,9.88
2023-06-22T13:13:17.724Z,10.83
2023-06-22T13:15:45.615Z,12.85
2023-06-22T13:18:13.353Z,12.77
2023-06-22T13:20:41.089Z,12.80
2023-06-22T13:23:09.399Z,13.23
2023-06-22T13:25:37.408Z,13.60
2023-06-22T13:28:07.660Z,14.35
2023-06-22T13:30:37.212Z,14.82
2023-06-22T13:33:05.253Z,15.00
2023-06-22T13:35:33.502Z,14.60
2023-06-22T13:38:01.354Z,15.00
2023-06-22T13:40:29.133Z,14.68
2023-06-22T13:42:57.361Z,15.40
2023-06-22T13:45:25.323Z,15.45
2023-06-22T13:47:54.613Z,17.23
2023-06-22T13:50:22.528Z,17.07
2023-06-22T13:52:50.411Z,19.08
2023-06-22T13:55:18.301Z,18.83
2023-06-22T13:57:46.113Z,17.90
2023-06-22T14:00:15.056Z,19.07
2023-06-22T14:02:42.974Z,19.27
2023-06-22T14:05:13.093Z,18.33
2023-06-22T14:07:41.089Z,17.77
2023-06-22T14:10:09.602Z,18.88
2023-06-22T14:12:37.495Z,22.58
2023-06-22T14:15:06.103Z,19.55
2023-06-22T14:17:33.974Z,19.50
2023-06-22T14:20:01.691Z,20.25
2023-06-22T14:22:31.278Z,20.95
2023-06-22T14:24:59.841Z,21.23
2023-06-22T14:27:53.291Z,22.25
2023-06-22T14:30:21.032Z,21.98
2023-06-22T14:32:49.060Z,21.23
2023-06-22T14:35:17.053Z,21.95
2023-06-22T14:37:44.910Z,21.85
2023-06-22T14:40:16.486Z,21.52
2023-06-22T14:42:44.531Z,21.53
2023-06-22T14:45:15.153Z,21.17
2023-06-22T14:47:43.138Z,20.10
2023-06-22T14:50:11.378Z,20.60
2023-06-22T14:52:39.226Z,20.98
2023-06-22T14:55:08.153Z,20.05
2023-06-22T14:57:36.033Z,24.60
2023-06-22T15:00:04.071Z,19.87
2023-06-22T15:02:33.470Z,19.98
2023-06-22T15:05:01.337Z,25.55
2023-06-22T15:07:29.153Z,45.00
2023-06-22T15:09:56.976Z,22.10
2023-06-22T15:12:24.725Z,36.07
2023-06-22T15:14:52.528Z,73.38
2023-06-22T15:17:20.359Z,20.88
2023-06-22T15:19:49.567Z,21.25
2023-06-22T15:22:19.210Z,25.33
2023-06-22T15:24:48.844Z,21.30
2023-06-22T15:27:16.895Z,24.23
2023-06-22T15:29:44.731Z,21.42
2023-06-22T15:32:12.456Z,20.80
2023-06-22T15:34:40.434Z,25.08
2023-06-22T15:37:09.774Z,20.40
2023-06-22T15:39:37.536Z,72.95
2023-06-22T15:42:05.464Z,87.57
2023-06-22T15:44:33.246Z,19.38
2023-06-22T15:47:01.009Z,34.07
2023-06-22T15:49:29.099Z,19.45
2023-06-22T15:51:56.795Z,19.50
2023-06-22T15:54:26.104Z,20.58
2023-06-22T15:56:53.842Z,18.92
2023-06-22T15:59:21.734Z,19.20
2023-06-22T16:01:49.637Z,19.40
2023-06-22T16:04:17.427Z,20.05
2023-06-22T16:06:45.229Z,18.70
2023-06-22T16:09:15.114Z,19.65
2023-06-22T16:11:46.044Z,18.87
2023-06-22T16:14:38.754Z,18.20
2023-06-22T16:17:06.912Z,20.23
2023-06-22T16:19:34.793Z,19.20
2023-06-22T16:22:02.596Z,20.40
2023-06-22T16:24:30.436Z,20.88
2023-06-22T16:28:45.800Z,20.42
2023-06-22T16:31:13.622Z,20.90
2023-06-22T16:33:47.746Z,20.88
2023-06-22T16:36:15.859Z,20.52
2023-06-22T16:38:44.243Z,22.20
2023-06-22T16:41:12.604Z,23.30
2023-06-22T16:43:40.597Z,22.67
2023-06-22T16:46:10.291Z,21.95
2023-06-22T16:48:38.450Z,21.85
2023-06-22T16:51:06.477Z,23.92
2023-06-22T16:56:31.456Z,22.25
2023-06-22T16:59:06.943Z,24.30
2023-06-22T17:01:38.061Z,22.23
2023-06-22T17:04:09.854Z,23.30
2023-06-22T17:06:38.127Z,22.52
2023-06-22T17:09:05.986Z,23.58
2023-06-22T17:11:35.130Z,24.50
2023-06-22T17:14:03.069Z,25.05
2023-06-22T17:16:33.295Z,22.30
2023-06-22T17:19:04.867Z,22.83
2023-06-22T17:21:34.060Z,24.20
2023-06-22T17:24:02.903Z,25.85
2023-06-22T17:26:32.523Z,23.63
2023-06-22T17:29:03.996Z,22.38
2023-06-22T17:31:39.208Z,21.77
2023-06-22T17:34:10.858Z,24.10
2023-06-22T17:36:45.675Z,23.48
2023-06-22T17:39:14.860Z,23.70
2023-06-22T17:41:44.965Z,24.35
2023-06-22T17:44:15.634Z,20.83
2023-06-22T17:46:44.146Z,20.83
2023-06-22T17:49:12.709Z,20.92
2023-06-22T17:51:41.688Z,23.05
2023-06-22T17:54:09.542Z,19.55
2023-06-22T17:56:37.596Z,21.63
2023-06-22T17:59:05.728Z,18.20
2023-06-22T18:01:36.515Z,19.10
2023-06-22T18:04:08.412Z,18.65
2023-06-22T18:06:39.131Z,18.48
2023-06-22T18:09:09.060Z,17.83
2023-06-22T18:11:39.469Z,19.10
2023-06-22T18:14:07.470Z,20.48
2023-06-22T18:16:37.357Z,20.27
2023-06-22T18:19:05.364Z,16.63
2023-06-22T18:21:33.268Z,15.77
2023-06-22T18:24:01.857Z,17.55
2023-06-22T18:26:29.798Z,16.20
2023-06-22T18:28:58.641Z,15.32
2023-06-22T18:31:27.437Z,17.77
2023-06-22T18:33:58.667Z,14.43
2023-06-22T18:36:28.570Z,12.90
2023-06-22T18:38:59.718Z,12.70
2023-06-22T18:41:36.110Z,13.68
2023-06-22T18:44:04.921Z,11.90
2023-06-22T18:46:36.949Z,13.60
2023-06-22T18:49:13.243Z,12.87
2023-06-22T18:51:55.019Z,10.53
2023-06-22T18:54:24.842Z,10.10
2023-06-22T18:56:57.055Z,9.57
2023-06-22T18:59:44.186Z,9.07
2023-06-22T19:02:12.828Z,10.00
2023-06-22T19:04:42.884Z,7.53
2023-06-22T19:07:13.089Z,8.88
2023-06-22T19:09:41.201Z,9.55
2023-06-22T19:12:19.759Z,8.50
2023-06-22T19:15:13.186Z,8.30
2023-06-22T19:17:43.921Z,9.02
2023-06-22T19:20:14.442Z,9.35
2023-06-22T19:22:49.837Z,8.13
2023-06-22T19:25:21.919Z,7.57
2023-06-22T19:27:52.055Z,8.65
2023-06-22T19:30:20.094Z,9.40
2023-06-22T19:32:48.713Z,7.60
2023-06-22T19:35:18.627Z,7.82
2023-06-22T19:37:47.534Z,8.88
2023-06-22T19:40:22.088Z,9.77
2023-06-22T19:42:55.342Z,10.48
2023-06-22T19:45:23.239Z,10.13
2023-06-22T19:47:52.379Z,10.85
2023-06-22T19:50:25.907Z,9.38
2023-06-22T19:52:56.784Z,6.22
2023-06-22T19:55:24.657Z,6.85
2023-06-22T19:57:52.517Z,5.50
2023-06-22T20:00:23.552Z,5.43
2023-06-22T20:02:52.735Z,4.47
2023-06-22T20:05:22.991Z,4.67
2023-06-22T20:07:50.896Z,5.30
2023-06-22T20:10:20.771Z,3.70
2023-06-22T20:12:50.950Z,4.83
2023-06-22T20:15:26.852Z,4.28
2023-06-22T20:17:55.983Z,4.75
2023-06-22T20:20:26.690Z,4.22
2023-06-22T20:22:57.161Z,4.22
2023-06-22T20:25:26.142Z,5.05
2023-06-22T20:27:54.043Z,6.15
2023-06-22T20:30:23.283Z,5.45
2023-06-22T20:32:52.035Z,6.17
2023-06-22T20:35:21.391Z,5.50
2023-06-22T20:37:54.615Z,5.53
2023-06-22T20:40:27.525Z,6.38
2023-06-22T20:42:58.425Z,6.13
2023-06-22T20:45:26.622Z,7.90
2023-06-22T20:47:56.998Z,6.43
2023-06-22T20:50:29.156Z,5.78
2023-06-22T20:52:58.915Z,6.45
2023-06-22T20:55:26.903Z,6.00
2023-06-22T20:57:55.885Z,6.50
2023-06-22T21:00:24.081Z,5.78
2023-06-22T21:02:53.637Z,7.20
2023-06-22T21:05:21.757Z,5.88
2023-06-22T21:07:50.092Z,7.05
2023-06-22T21:10:19.383Z,6.78
2023-06-22T21:12:47.155Z,5.90
2023-06-22T21:15:14.955Z,6.40
2023-06-22T21:17:42.826Z,5.80
2023-06-22T21:20:11.394Z,6.10
2023-06-22T21:22:39.650Z,6.07
2023-06-22T21:25:09.084Z,5.60
2023-06-22T21:27:38.528Z,5.93
2023-06-22T21:30:08.191Z,5.28
2023-06-22T21:32:36.234Z,5.22
2023-06-22T21:35:04.089Z,5.47
2023-06-22T21:37:32.091Z,5.57
2023-06-22T21:39:59.879Z,5.38
2023-06-22T21:42:28.426Z,6.77
2023-06-22T21:44:58.092Z,7.38
2023-06-22T21:47:26.956Z,5.30
2023-06-22T21:49:54.774Z,6.20
2023-06-22T21:52:22.831Z,7.32
2023-06-22T21:54:50.620Z,6.40
2023-06-22T21:57:18.318Z,4.73
2023-06-22T21:59:46.182Z,6.38
2023-06-22T22:02:15.474Z,6.70
2023-06-22T22:04:43.251Z,6.20
2023-06-22T22:07:11.068Z,5.65
2023-06-22T22:09:38.920Z,6.67
2023-06-22T22:12:07.670Z,5.05
2023-06-22T22:14:36.069Z,6.03
2023-06-22T22:17:03.933Z,6.50
2023-06-22T22:19:33.234Z,4.95
2023-06-22T22:22:01.042Z,5.72
2023-06-22T22:24:28.844Z,4.95
2023-06-22T22:26:56.620Z,7.55
2023-06-22T22:29:24.312Z,7.82
2023-06-22T22:31:52.080Z,5.60
2023-06-22T22:34:19.979Z,5.60
2023-06-22T22:36:49.175Z,5.18
2023-06-22T22:39:31.673Z,6.18
2023-06-22T22:42:00.541Z,8.20
2023-06-22T22:44:28.467Z,8.35
2023-06-22T22:46:56.652Z,6.13
2023-06-22T22:49:24.774Z,8.73
2023-06-22T22:51:54.412Z,6.95
2023-06-22T22:54:22.296Z,7.50
2023-06-22T22:56:50.463Z,7.72
2023-06-22T22:59:18.331Z,8.85
2023-06-22T23:01:46.260Z,8.77
2023-06-22T23:04:19.112Z,8.57
2023-06-22T23:06:46.881Z,8.18
2023-06-22T23:09:16.058Z,10.00
2023-06-22T23:11:43.875Z,11.18
2023-06-22T23:14:11.850Z,10.05
2023-06-22T23:16:40.130Z,9.80
2023-06-22T23:19:08.133Z,9.70
2023-06-22T23:21:35.948Z,11.65
2023-06-22T23:24:05.499Z,11.38
2023-06-22T23:26:34.776Z,10.38
2023-06-22T23:29:02.804Z,10.27
2023-06-22T23:31:34.302Z,10.15
2023-06-22T23:34:04.505Z,9.63
2023-06-22T23:36:32.319Z,8.98
2023-06-22T23:39:00.199Z,8.67
2023-06-22T23:41:28.761Z,8.07
2023-06-22T23:43:57.988Z,8.45
2023-06-22T23:46:25.936Z,8.48
2023-06-22T23:48:53.813Z,8.25
2023-06-22T23:51:21.619Z,8.47
2023-06-22T23:53:49.658Z,9.85
2023-06-22T23:56:17.518Z,7.97
2023-06-22T23:58:45.386Z,7.97
